Dutch Harbor, AK

9:44 AM AKDT on September 01, 2015 (GMT -0800)
Dutch Harbor | | Change Station
CLOSE
Current Station
Airport
Location: Dutch Harbor,
Elevation: 13 ft
Nearby Weather Stations

Elev 13 ft 53.90 °N, 166.54 °W | Updated 48 minutes ago

Light Rain
Light Rain
61 °F
Feels Like 61 °F
N
7
Wind Variable Wind from East

Today
High -- | Low -- °F
--% Chance of Precip.
Yesterday
High -- | Low -- °F
Precip. -- in
8:16 AM 9:57 PM
Waning Gibbous, 87% visible
Pressure 29.94 in
Visibility 10.0 miles
Clouds Few 1400 ft
Mostly Cloudy 2300 ft
Overcast 4200 ft
Dew Point 56 °F
Humidity 83%
Rainfall 0.10 in
Snow Depth Not available.
UV 0 out of 12
Pollen Not available.
Air Quality Not available.
Flu Activity Not available.
METAR PADU 011656Z 10006KT 10SM -RA FEW014 BKN023 OVC042 16/13 A2992 RMK AO2 SLP137 MH P0005 T01610133
Pressure 29.94 in
Visibility 10.0 miles
Clouds Few 1400 ft
Mostly Cloudy 2300 ft
Overcast 4200 ft
Dew Point 56 °F
Humidity 83%
Rainfall 0.10 in
Snow Depth Not available.
UV 0 out of 12
Pollen Not available.
Air Quality Not available.
Flu Activity Not available.
METAR PADU 011656Z 10006KT 10SM -RA FEW014 BKN023 OVC042 16/13 A2992 RMK AO2 SLP137 MH P0005 T01610133

10-Day Weather Forecast

×

Almanac

Astronomy

Sep. 01, 2015 Rise Set
Actual Time
Civil Twilight
Nautical Twilight
Astronomical Twilight
Moon
Length of Visible Light
Length of Day
Tomorrow will be .
, % of the Moon is Illuminated

Today's Extremes

State Highs State Lows

Community

WunderPhotos

Upload Photos

1,851,569 photos uploaded!

WunderBlogs® & News

Nearby

Air Quality

  Air Quality AQ Index Pollutant
Not available.

Snow Depth

Station Depth Elevation

Earthquake Activity

City Distance Mag. Time & Date
Minimum magnitude displayed is 2.5.

Coastal Water Temperatures

Place Temperature

Stations

Nearby Weather Stations

Station Location Temp. Windchill Dew Point Humidity Wind Precip. Elev Updated Type